Time;durP1;ratioP1;P1;durP2;ratioP2;P2;SDS_P1;SDS_P2;PMS_P1;PMS_P2;Temp;Humidity;BMP_temperature;BMP_pressure;BME280_temperature;BME280_humidity;BME280_pressure;Samples;Min_cycle;Max_cycle;Signal;HPM_P1;HPM_P2
2023/11/18 00:01:43;;;;;;;2.47;1.77;;;;;;;;;;6262007;28;20049;-71
2023/11/18 00:04:45;;;;;;;2.55;1.98;;;;;;;;;;6244789;28;20048;-71
2023/11/18 00:07:47;;;;;;;4.45;4.15;;;;;;;;;;6262342;28;20454;-71
2023/11/18 00:10:49;;;;;;;2.67;2.15;;;;;;;;;;6260830;28;20701;-71
2023/11/18 00:13:52;;;;;;;2.28;1.60;;;;;;;;;;6263173;28;20130;-71
2023/11/18 00:16:54;;;;;;;3.33;3.03;;;;;;;;;;6261962;28;20041;-71
2023/11/18 00:19:56;;;;;;;3.15;2.67;;;;;;;;;;6263035;28;20489;-71
2023/11/18 00:22:58;;;;;;;3.22;1.80;;;;;;;;;;6251538;28;20183;-71
2023/11/18 00:26:00;;;;;;;2.50;1.95;;;;;;;;;;6262122;28;20037;-71
2023/11/18 00:29:03;;;;;;;2.75;2.13;;;;;;;;;;6261959;28;20041;-71
2023/11/18 00:32:05;;;;;;;3.00;2.20;;;;;;;;;;6261498;28;20048;-71
2023/11/18 00:35:10;;;;;;;3.13;2.83;;;;;;;;;;6261665;28;20532;-72
2023/11/18 00:38:12;;;;;;;2.78;2.13;;;;;;;;;;6262660;28;20068;-71
2023/11/18 00:41:14;;;;;;;2.60;2.00;;;;;;;;;;6259916;28;20102;-71
2023/11/18 00:44:19;;;;;;;3.95;2.55;;;;;;;;;;6260228;28;20072;-71
2023/11/18 00:47:23;;;;;;;3.42;2.92;;;;;;;;;;6261605;28;20110;-71
2023/11/18 00:50:25;;;;;;;3.45;2.75;;;;;;;;;;6257111;28;20048;-71
2023/11/18 00:53:29;;;;;;;3.22;2.58;;;;;;;;;;6262947;28;20140;-71
2023/11/18 00:56:32;;;;;;;3.42;2.30;;;;;;;;;;6261954;28;20262;-70
2023/11/18 00:59:35;;;;;;;2.55;1.80;;;;;;;;;;6262807;28;20053;-71
2023/11/18 01:02:38;;;;;;;2.58;2.30;;;;;;;;;;6262781;28;20850;-70
2023/11/18 01:05:40;;;;;;;3.72;2.97;;;;;;;;;;6262142;28;20049;-71
2023/11/18 01:08:46;;;;;;;2.92;1.98;;;;;;;;;;6263261;28;20120;-70
2023/11/18 01:11:49;;;;;;;2.28;1.88;;;;;;;;;;6264422;28;20056;-71
2023/11/18 01:15:10;;;;;;;3.63;2.60;;;;;;;;;;6260541;28;20037;-70
2023/11/18 01:18:12;;;;;;;2.75;2.08;;;;;;;;;;6261250;28;20072;-71
2023/11/18 01:21:17;;;;;;;2.72;2.13;;;;;;;;;;6258363;28;20049;-72
2023/11/18 01:24:19;;;;;;;3.78;2.20;;;;;;;;;;6262243;28;20049;-72
2023/11/18 01:27:22;;;;;;;3.30;2.15;;;;;;;;;;6260564;28;20048;-71
2023/11/18 01:30:26;;;;;;;2.80;1.95;;;;;;;;;;6262199;28;20052;-72
2023/11/18 01:33:28;;;;;;;3.63;2.20;;;;;;;;;;6261881;28;20087;-71
2023/11/18 01:36:30;;;;;;;2.55;2.13;;;;;;;;;;6261964;28;20065;-71
2023/11/18 01:39:35;;;;;;;3.38;3.08;;;;;;;;;;6260655;28;20646;-71
2023/11/18 01:42:37;;;;;;;3.15;2.75;;;;;;;;;;6260108;28;20052;-71
2023/11/18 01:45:42;;;;;;;3.78;3.05;;;;;;;;;;6259348;28;20459;-71
2023/11/18 01:48:46;;;;;;;5.47;5.03;;;;;;;;;;6260531;28;20440;-71
2023/11/18 01:51:51;;;;;;;3.85;3.38;;;;;;;;;;6256236;28;20053;-71
2023/11/18 01:54:54;;;;;;;;;;;;;;;;;;6243192;28;20052;-71
2023/11/18 01:57:58;;;;;;;3.97;3.17;;;;;;;;;;6270677;28;19928;-72
2023/11/18 02:01:00;;;;;;;4.00;3.10;;;;;;;;;;6289087;28;20056;-71
2023/11/18 02:04:03;;;;;;;3.78;3.25;;;;;;;;;;6264233;28;20068;-72
2023/11/18 02:07:09;;;;;;;4.70;3.67;;;;;;;;;;6258732;28;20041;-71
2023/11/18 02:10:11;;;;;;;5.53;4.13;;;;;;;;;;6290032;28;20087;-71
2023/11/18 02:13:28;;;;;;;6.22;3.95;;;;;;;;;;6230702;28;20048;-70
2023/11/18 02:16:31;;;;;;;3.10;2.45;;;;;;;;;;6242573;28;20044;-71
2023/11/18 02:19:34;;;;;;;4.38;3.40;;;;;;;;;;6255633;28;20053;-71
2023/11/18 02:22:36;;;;;;;3.60;3.30;;;;;;;;;;6242430;28;20053;-71
2023/11/18 02:25:56;;;;;;;3.88;3.50;;;;;;;;;;6256095;28;20049;-70
2023/11/18 02:29:01;;;;;;;5.57;5.15;;;;;;;;;;6242761;28;20044;-70
2023/11/18 02:32:15;;;;;;;3.72;3.42;;;;;;;;;;6224700;28;20142;-70
2023/11/18 02:35:28;;;;;;;3.85;3.50;;;;;;;;;;6274534;28;20041;-70
2023/11/18 02:38:36;;;;;;;4.40;3.72;;;;;;;;;;6242578;28;20041;-69
2023/11/18 02:41:41;;;;;;;3.30;2.58;;;;;;;;;;6258789;28;20044;-70
2023/11/18 02:44:43;;;;;;;5.07;3.97;;;;;;;;;;6242977;28;20053;-70
2023/11/18 02:47:45;;;;;;;4.75;3.53;;;;;;;;;;6260458;28;20132;-70
2023/11/18 02:50:48;;;;;;;4.05;3.33;;;;;;;;;;6259504;28;20049;-70
2023/11/18 02:53:50;;;;;;;4.55;3.75;;;;;;;;;;6260336;28;20060;-71
2023/11/18 02:56:53;;;;;;;4.75;4.35;;;;;;;;;;6242239;28;20129;-70
2023/11/18 02:59:57;;;;;;;4.00;3.30;;;;;;;;;;6259889;28;20585;-70
2023/11/18 03:03:00;;;;;;;4.05;2.83;;;;;;;;;;6259169;28;20045;-70
2023/11/18 03:06:03;;;;;;;3.63;3.00;;;;;;;;;;6265052;28;20094;-70
2023/11/18 03:09:07;;;;;;;5.50;3.92;;;;;;;;;;6265336;28;20130;-70
2023/11/18 03:12:09;;;;;;;5.07;3.58;;;;;;;;;;6258331;28;20048;-71
2023/11/18 03:15:11;;;;;;;4.30;3.55;;;;;;;;;;6261199;28;20082;-70
2023/11/18 03:18:15;;;;;;;4.60;4.20;;;;;;;;;;6264394;28;20045;-70
2023/11/18 03:21:19;;;;;;;5.88;4.43;;;;;;;;;;6256753;28;20052;-70
2023/11/18 03:24:21;;;;;;;8.48;7.68;;;;;;;;;;6261638;28;20815;-70
2023/11/18 03:27:23;;;;;;;5.80;5.13;;;;;;;;;;6246791;28;20507;-69
2023/11/18 03:30:25;;;;;;;7.82;7.22;;;;;;;;;;6259306;28;20852;-70
2023/11/18 03:33:29;;;;;;;6.15;4.80;;;;;;;;;;6244240;28;20538;-70
2023/11/18 03:36:31;;;;;;;4.53;4.05;;;;;;;;;;6263916;28;20041;-70
2023/11/18 03:39:33;;;;;;;4.95;4.10;;;;;;;;;;6281231;28;20208;-70
2023/11/18 03:42:36;;;;;;;8.57;7.88;;;;;;;;;;6263583;28;20467;-69
2023/11/18 03:45:42;;;;;;;5.05;4.55;;;;;;;;;;6262136;28;20077;-69
2023/11/18 03:48:44;;;;;;;5.30;4.47;;;;;;;;;;6263265;28;20052;-69
2023/11/18 03:51:47;;;;;;;5.35;4.40;;;;;;;;;;6261716;28;20048;-69
2023/11/18 03:54:49;;;;;;;5.43;3.38;;;;;;;;;;6262837;28;20060;-69
2023/11/18 03:57:52;;;;;;;6.38;5.28;;;;;;;;;;6262352;28;20069;-69
2023/11/18 04:00:54;;;;;;;6.18;4.72;;;;;;;;;;6260803;28;20040;-70
2023/11/18 04:03:57;;;;;;;8.45;5.72;;;;;;;;;;6261292;28;20127;-69
2023/11/18 04:07:03;;;;;;;5.57;5.05;;;;;;;;;;6248696;28;20038;-69
2023/11/18 04:10:06;;;;;;;5.85;5.35;;;;;;;;;;6261539;28;20041;-69
2023/11/18 04:13:08;;;;;;;5.40;3.60;;;;;;;;;;6261423;28;20563;-69
2023/11/18 04:16:15;;;;;;;5.53;4.63;;;;;;;;;;6243993;28;20047;-70
2023/11/18 04:19:18;;;;;;;5.15;3.85;;;;;;;;;;6263044;28;20107;-70
2023/11/18 04:22:20;;;;;;;7.90;7.10;;;;;;;;;;6262899;28;20052;-70
2023/11/18 04:25:22;;;;;;;5.03;4.20;;;;;;;;;;6262684;28;20082;-70
2023/11/18 04:28:24;;;;;;;6.50;5.90;;;;;;;;;;6261364;28;20447;-70
2023/11/18 04:31:26;;;;;;;5.57;4.90;;;;;;;;;;6262902;28;20045;-70
2023/11/18 04:34:28;;;;;;;6.47;5.38;;;;;;;;;;6261474;28;20041;-70
2023/11/18 04:37:30;;;;;;;5.38;4.53;;;;;;;;;;6272536;28;20051;-70
2023/11/18 04:40:32;;;;;;;5.43;4.55;;;;;;;;;;6263028;28;20049;-70
2023/11/18 04:43:34;;;;;;;6.80;6.03;;;;;;;;;;6266631;28;20072;-70
2023/11/18 04:46:46;;;;;;;9.60;8.70;;;;;;;;;;6243091;28;20747;-70
2023/11/18 04:49:48;;;;;;;7.75;4.80;;;;;;;;;;6260615;28;20044;-71
2023/11/18 04:52:50;;;;;;;6.85;5.75;;;;;;;;;;6262452;28;20051;-70
2023/11/18 04:55:52;;;;;;;5.88;5.07;;;;;;;;;;6262209;28;20524;-69
2023/11/18 04:58:54;;;;;;;5.78;5.25;;;;;;;;;;6260142;28;20611;-69
2023/11/18 05:01:57;;;;;;;6.30;5.32;;;;;;;;;;6262059;28;20182;-71
2023/11/18 05:04:59;;;;;;;5.47;4.88;;;;;;;;;;6263451;28;20045;-70
2023/11/18 05:08:02;;;;;;;4.15;2.88;;;;;;;;;;6263205;28;20056;-70
2023/11/18 05:11:04;;;;;;;6.50;5.85;;;;;;;;;;6287920;28;20047;-69
2023/11/18 05:14:07;;;;;;;6.82;6.22;;;;;;;;;;6292207;28;20045;-69
2023/11/18 05:17:09;;;;;;;5.53;4.55;;;;;;;;;;6274896;28;20045;-69
2023/11/18 05:20:11;;;;;;;5.03;4.28;;;;;;;;;;6262346;28;20183;-69
2023/11/18 05:35:04;;;;;;;4.07;3.03;;;;;;;;;;6334947;27;20608;-61
2023/11/18 05:38:07;;;;;;;3.70;2.95;;;;;;;;;;6278425;27;20050;-61
2023/11/18 05:41:16;;;;;;;4.45;4.05;;;;;;;;;;6273341;27;20190;-62
2023/11/18 05:44:19;;;;;;;5.07;4.55;;;;;;;;;;6248594;27;20193;-61
2023/11/18 05:47:21;;;;;;;5.13;4.63;;;;;;;;;;6245583;27;20056;-61
2023/11/18 05:50:27;;;;;;;5.78;3.45;;;;;;;;;;6248071;27;20054;-62
2023/11/18 05:53:30;;;;;;;3.80;2.75;;;;;;;;;;6253741;27;20037;-62
2023/11/18 05:56:36;;;;;;;6.20;4.10;;;;;;;;;;6246996;27;20048;-63
2023/11/18 05:59:38;;;;;;;3.50;3.13;;;;;;;;;;6292556;27;20517;-61
2023/11/18 06:02:40;;;;;;;12.70;8.13;;;;;;;;;;6244984;27;20484;-61
2023/11/18 06:05:44;;;;;;;4.72;2.97;;;;;;;;;;6233122;27;20080;-62
2023/11/18 06:08:47;;;;;;;3.80;2.80;;;;;;;;;;6246460;27;20057;-61
2023/11/18 06:11:49;;;;;;;3.70;3.33;;;;;;;;;;6253394;27;20045;-61
2023/11/18 06:14:51;;;;;;;3.63;2.60;;;;;;;;;;6245935;27;20732;-62
2023/11/18 06:17:55;;;;;;;3.53;2.83;;;;;;;;;;6263377;27;20152;-62
2023/11/18 06:20:57;;;;;;;8.32;5.30;;;;;;;;;;6273865;27;20183;-62
2023/11/18 06:24:05;;;;;;;5.07;4.28;;;;;;;;;;6275433;27;20048;-62
2023/11/18 06:27:08;;;;;;;4.97;4.57;;;;;;;;;;6247023;27;20049;-62
2023/11/18 06:30:12;;;;;;;3.38;3.08;;;;;;;;;;6245574;27;20167;-62
2023/11/18 06:33:14;;;;;;;6.22;4.03;;;;;;;;;;6260286;27;20077;-63
2023/11/18 06:36:21;;;;;;;2.42;2.15;;;;;;;;;;6244423;27;20888;-60
2023/11/18 06:39:29;;;;;;;3.80;3.22;;;;;;;;;;6232192;28;20053;-61
2023/11/18 06:42:31;;;;;;;3.65;2.92;;;;;;;;;;6234035;27;20062;-61
2023/11/18 06:45:33;;;;;;;3.97;3.17;;;;;;;;;;6228871;28;20254;-62
2023/11/18 06:48:35;;;;;;;3.97;3.60;;;;;;;;;;6232529;27;20733;-60
2023/11/18 06:51:38;;;;;;;3.03;2.65;;;;;;;;;;6242689;27;20502;-60
2023/11/18 06:54:43;;;;;;;3.47;2.28;;;;;;;;;;6258889;27;20132;-61
2023/11/18 06:57:46;;;;;;;4.55;3.95;;;;;;;;;;6246556;27;20048;-61
2023/11/18 07:00:48;;;;;;;2.83;2.63;;;;;;;;;;6228455;28;20060;-60
2023/11/18 07:03:53;;;;;;;2.72;2.53;;;;;;;;;;6239349;27;20049;-61
2023/11/18 07:06:56;;;;;;;2.95;2.40;;;;;;;;;;6225752;27;20056;-61
2023/11/18 07:09:58;;;;;;;2.78;2.08;;;;;;;;;;6232899;28;20072;-61
2023/11/18 07:13:00;;;;;;;2.25;1.90;;;;;;;;;;6233361;27;20072;-61
2023/11/18 07:16:03;;;;;;;2.28;1.67;;;;;;;;;;6228200;28;20045;-62
2023/11/18 07:19:06;;;;;;;2.55;1.65;;;;;;;;;;6277636;27;20741;-61
2023/11/18 07:22:09;;;;;;;2.53;1.80;;;;;;;;;;6243727;27;20833;-61
2023/11/18 07:25:12;;;;;;;2.35;2.15;;;;;;;;;;6235404;27;20050;-62
2023/11/18 07:28:17;;;;;;;5.03;2.28;;;;;;;;;;6251012;27;20085;-62
2023/11/18 07:31:19;;;;;;;2.78;2.10;;;;;;;;;;6239501;27;20077;-62
2023/11/18 07:34:23;;;;;;;3.70;3.40;;;;;;;;;;6229003;27;20045;-62
2023/11/18 07:37:26;;;;;;;2.55;2.00;;;;;;;;;;6266037;27;20049;-62
2023/11/18 07:40:28;;;;;;;2.83;2.03;;;;;;;;;;6230292;28;20042;-62
2023/11/18 07:43:30;;;;;;;2.80;2.35;;;;;;;;;;6265040;27;20078;-62
2023/11/18 07:46:32;;;;;;;3.50;3.20;;;;;;;;;;6241271;27;20595;-62
2023/11/18 07:49:35;;;;;;;2.08;1.67;;;;;;;;;;6244774;27;20045;-62
2023/11/18 07:52:37;;;;;;;2.45;2.13;;;;;;;;;;6232626;27;20185;-62
2023/11/18 07:55:39;;;;;;;2.42;1.88;;;;;;;;;;6218192;28;20053;-62
2023/11/18 07:58:47;;;;;;;2.75;2.30;;;;;;;;;;6241540;27;20061;-62
2023/11/18 08:01:50;;;;;;;2.67;1.90;;;;;;;;;;6226204;28;20049;-62
2023/11/18 08:04:52;;;;;;;2.95;2.03;;;;;;;;;;6227551;27;20209;-63
2023/11/18 08:07:54;;;;;;;2.63;2.22;;;;;;;;;;6221107;28;20049;-63
2023/11/18 08:10:56;;;;;;;2.63;2.00;;;;;;;;;;6225619;28;20594;-63
2023/11/18 08:13:58;;;;;;;2.55;1.85;;;;;;;;;;6231590;27;20588;-63
2023/11/18 08:17:01;;;;;;;3.25;2.95;;;;;;;;;;6223406;28;20812;-62
2023/11/18 08:20:15;;;;;;;10.38;4.40;;;;;;;;;;6230235;28;20821;-62
2023/11/18 08:23:19;;;;;;;5.20;4.10;;;;;;;;;;6227630;28;20038;-62
2023/11/18 08:26:21;;;;;;;6.95;3.50;;;;;;;;;;6232548;28;20045;-63
2023/11/18 08:29:27;;;;;;;4.90;3.00;;;;;;;;;;6230698;27;20128;-63
2023/11/18 08:32:29;;;;;;;4.60;3.35;;;;;;;;;;6227041;28;20045;-63
2023/11/18 08:35:31;;;;;;;6.65;4.43;;;;;;;;;;6235527;27;20046;-63
2023/11/18 08:38:34;;;;;;;4.15;3.63;;;;;;;;;;6221843;28;20132;-63
2023/11/18 08:41:38;;;;;;;4.32;3.45;;;;;;;;;;6223019;28;20221;-64
2023/11/18 08:44:40;;;;;;;6.88;5.22;;;;;;;;;;6234117;27;20502;-65
2023/11/18 08:47:44;;;;;;;3.88;3.28;;;;;;;;;;6223589;28;20049;-64
2023/11/18 08:50:46;;;;;;;3.25;2.72;;;;;;;;;;6252275;27;20523;-64
2023/11/18 08:53:50;;;;;;;3.95;3.25;;;;;;;;;;6225453;27;20114;-64
2023/11/18 08:56:52;;;;;;;7.68;3.97;;;;;;;;;;6232178;27;20101;-65
2023/11/18 08:59:58;;;;;;;3.90;3.35;;;;;;;;;;6227146;28;20070;-64
2023/11/18 09:03:01;;;;;;;2.60;1.92;;;;;;;;;;6215294;28;20045;-64
2023/11/18 09:06:05;;;;;;;3.38;3.08;;;;;;;;;;6236160;27;20184;-64
2023/11/18 09:09:11;;;;;;;2.95;2.53;;;;;;;;;;6227401;28;20187;-63
2023/11/18 09:12:14;;;;;;;3.03;2.35;;;;;;;;;;6250808;28;20054;-64
2023/11/18 09:15:22;;;;;;;3.05;2.28;;;;;;;;;;6226992;28;20443;-64
2023/11/18 09:18:27;;;;;;;4.45;2.58;;;;;;;;;;6220552;28;20046;-64
2023/11/18 09:21:31;;;;;;;3.33;2.15;;;;;;;;;;6231870;28;20045;-64
2023/11/18 09:24:34;;;;;;;4.72;2.80;;;;;;;;;;6249660;28;20090;-64
2023/11/18 09:27:36;;;;;;;2.47;2.28;;;;;;;;;;6237176;28;20049;-65
2023/11/18 09:30:38;;;;;;;7.55;6.05;;;;;;;;;;6226251;28;20250;-64
2023/11/18 09:33:46;;;;;;;6.05;4.55;;;;;;;;;;6231354;28;20098;-62
2023/11/18 09:36:49;;;;;;;15.85;9.02;;;;;;;;;;6246496;28;20098;-65
2023/11/18 09:39:52;;;;;;;4.20;3.50;;;;;;;;;;6228123;28;20045;-64
2023/11/18 09:42:58;;;;;;;4.55;2.67;;;;;;;;;;6219910;28;20033;-67
2023/11/18 09:46:14;;;;;;;3.13;2.30;;;;;;;;;;6240553;28;20133;-65
2023/11/18 09:49:33;;;;;;;3.38;3.08;;;;;;;;;;6242675;28;20116;-65
2023/11/18 09:52:42;;;;;;;3.85;2.47;;;;;;;;;;6261790;28;20105;-63
2023/11/18 09:55:59;;;;;;;3.55;2.78;;;;;;;;;;6239810;28;20633;-65
2023/11/18 09:59:07;;;;;;;3.60;3.05;;;;;;;;;;6237452;28;20051;-65
2023/11/18 10:02:10;;;;;;;5.13;1.80;;;;;;;;;;6226855;28;20148;-65
2023/11/18 10:05:13;;;;;;;2.75;2.40;;;;;;;;;;6216624;28;20498;-65
2023/11/18 10:08:16;;;;;;;3.72;2.50;;;;;;;;;;6218683;28;20050;-65
2023/11/18 10:11:22;;;;;;;2.80;2.53;;;;;;;;;;6230342;27;20059;-65
2023/11/18 10:14:24;;;;;;;3.67;2.80;;;;;;;;;;6257765;27;20039;-63
2023/11/18 10:17:27;;;;;;;5.15;4.20;;;;;;;;;;6278291;27;20049;-65
2023/11/18 10:20:44;;;;;;;2.75;2.25;;;;;;;;;;6231704;28;20041;-63
2023/11/18 10:24:02;;;;;;;3.25;2.70;;;;;;;;;;6250525;27;20551;-64
2023/11/18 10:27:08;;;;;;;3.28;2.97;;;;;;;;;;6244784;27;20680;-64
2023/11/18 10:30:18;;;;;;;3.80;3.47;;;;;;;;;;6233141;28;20098;-64
2023/11/18 10:33:21;;;;;;;4.28;2.50;;;;;;;;;;6230136;28;20050;-64
2023/11/18 10:36:24;;;;;;;6.32;4.15;;;;;;;;;;6234356;28;20540;-63
2023/11/18 10:39:31;;;;;;;3.60;2.72;;;;;;;;;;6235331;27;20077;-63
2023/11/18 10:42:33;;;;;;;3.50;2.50;;;;;;;;;;6240717;27;20050;-64
2023/11/18 10:45:38;;;;;;;3.97;2.90;;;;;;;;;;6224559;28;20064;-64
2023/11/18 10:48:47;;;;;;;4.90;4.07;;;;;;;;;;6238854;27;20046;-63
2023/11/18 10:51:52;;;;;;;3.65;2.40;;;;;;;;;;6243014;27;20081;-63
2023/11/18 10:54:55;;;;;;;3.20;2.45;;;;;;;;;;6231535;28;20547;-64
2023/11/18 10:57:57;;;;;;;2.63;2.42;;;;;;;;;;6227830;28;20519;-64
2023/11/18 11:01:05;;;;;;;;;;;;;;;;;;6235541;28;20060;-64
2023/11/18 11:04:10;;;;;;;2.88;2.45;;;;;;;;;;6229911;28;19929;-64
2023/11/18 11:07:13;;;;;;;3.72;2.60;;;;;;;;;;6246229;27;20049;-64
2023/11/18 11:10:15;;;;;;;3.33;2.75;;;;;;;;;;6232369;28;20064;-64
2023/11/18 11:13:17;;;;;;;3.15;2.85;;;;;;;;;;6231831;28;20057;-64
2023/11/18 11:16:19;;;;;;;2.72;2.42;;;;;;;;;;6231122;28;20062;-64
2023/11/18 11:19:44;;;;;;;4.03;3.40;;;;;;;;;;6245010;27;20128;-64
2023/11/18 11:23:10;;;;;;;3.58;2.92;;;;;;;;;;6246726;27;20056;-65
2023/11/18 11:26:25;;;;;;;3.30;2.90;;;;;;;;;;6234009;28;20049;-65
2023/11/18 11:29:32;;;;;;;3.30;2.47;;;;;;;;;;6239250;27;20054;-65
2023/11/18 11:32:45;;;;;;;3.80;2.95;;;;;;;;;;6232077;27;20571;-65
2023/11/18 11:35:49;;;;;;;4.20;3.80;;;;;;;;;;6233625;27;20056;-65
2023/11/18 11:38:55;;;;;;;4.18;3.58;;;;;;;;;;6218946;28;20042;-65
2023/11/18 11:41:59;;;;;;;3.67;3.40;;;;;;;;;;6230938;28;20120;-65
2023/11/18 11:45:02;;;;;;;3.72;2.70;;;;;;;;;;6227726;28;20046;-65
2023/11/18 11:48:19;;;;;;;3.42;2.67;;;;;;;;;;6227243;28;20057;-65
2023/11/18 11:51:29;;;;;;;4.07;2.53;;;;;;;;;;6228004;28;20083;-66
2023/11/18 11:54:40;;;;;;;3.58;3.28;;;;;;;;;;6238399;27;20049;-65
2023/11/18 11:57:42;;;;;;;4.57;3.42;;;;;;;;;;6231356;27;20075;-66
2023/11/18 12:00:44;;;;;;;2.47;2.28;;;;;;;;;;6232106;27;20186;-65
2023/11/18 12:03:47;;;;;;;2.72;2.42;;;;;;;;;;6230274;27;20049;-65
2023/11/18 12:06:54;;;;;;;3.70;3.03;;;;;;;;;;6230507;28;20178;-65
2023/11/18 12:10:15;;;;;;;3.78;2.90;;;;;;;;;;6214487;28;20715;-66
2023/11/18 12:13:18;;;;;;;4.68;4.28;;;;;;;;;;6227264;28;20443;-66
2023/11/18 12:17:21;;;;;;;3.50;3.20;;;;;;;;;;6226730;28;20511;-65
2023/11/18 12:20:47;;;;;;;4.22;3.08;;;;;;;;;;6222272;28;20128;-65
2023/11/18 12:24:18;;;;;;;4.57;4.07;;;;;;;;;;6243317;27;20054;-65
2023/11/18 12:27:38;;;;;;;5.50;3.33;;;;;;;;;;6235242;28;20051;-65
2023/11/18 12:30:55;;;;;;;3.22;2.63;;;;;;;;;;6276570;27;20049;-64
2023/11/18 12:34:02;;;;;;;2.78;2.38;;;;;;;;;;6241806;27;20045;-64
2023/11/18 12:37:25;;;;;;;3.72;3.25;;;;;;;;;;6233084;28;20109;-64
2023/11/18 12:40:40;;;;;;;3.95;3.35;;;;;;;;;;6242364;27;20045;-64
2023/11/18 12:43:49;;;;;;;5.18;2.92;;;;;;;;;;6239242;27;20077;-64
2023/11/18 12:47:09;;;;;;;4.00;3.45;;;;;;;;;;6225465;28;20049;-65
2023/11/18 12:50:17;;;;;;;3.50;2.65;;;;;;;;;;6233565;27;20061;-64
2023/11/18 12:53:19;;;;;;;4.25;3.10;;;;;;;;;;6229136;28;20049;-64
2023/11/18 12:56:23;;;;;;;14.52;3.88;;;;;;;;;;6230401;28;20169;-63
2023/11/18 12:59:26;;;;;;;4.80;3.80;;;;;;;;;;6243014;27;20049;-63
2023/11/18 13:02:28;;;;;;;5.22;3.67;;;;;;;;;;6226250;28;21272;-64
2023/11/18 13:05:30;;;;;;;7.75;6.15;;;;;;;;;;6274005;27;20559;-65
2023/11/18 13:08:32;;;;;;;4.88;4.00;;;;;;;;;;6243823;27;20048;-65
2023/11/18 13:11:34;;;;;;;4.88;2.95;;;;;;;;;;6229356;28;20539;-63
2023/11/18 13:14:39;;;;;;;6.78;3.55;;;;;;;;;;6232030;28;20596;-65
2023/11/18 13:17:41;;;;;;;4.45;4.00;;;;;;;;;;6227161;28;20523;-64
2023/11/18 13:20:54;;;;;;;4.22;3.80;;;;;;;;;;6220547;28;20124;-64
2023/11/18 13:23:56;;;;;;;3.70;3.35;;;;;;;;;;6231946;28;20045;-63
2023/11/18 13:27:06;;;;;;;5.47;3.35;;;;;;;;;;6220481;28;20126;-64
2023/11/18 13:30:13;;;;;;;4.13;3.67;;;;;;;;;;6227217;28;20092;-64
2023/11/18 13:33:16;;;;;;;4.60;4.20;;;;;;;;;;6219064;28;20049;-64
2023/11/18 13:36:18;;;;;;;4.55;3.83;;;;;;;;;;6217113;28;20455;-63
2023/11/18 13:39:20;;;;;;;5.00;4.45;;;;;;;;;;6227478;28;20102;-63
2023/11/18 13:42:28;;;;;;;5.50;4.57;;;;;;;;;;6228282;28;20139;-65
2023/11/18 13:45:30;;;;;;;5.90;4.50;;;;;;;;;;6223590;28;20170;-63
2023/11/18 13:48:40;;;;;;;4.63;2.60;;;;;;;;;;6232170;27;20105;-63
2023/11/18 13:51:43;;;;;;;5.85;3.60;;;;;;;;;;6228835;27;20052;-64
2023/11/18 13:54:46;;;;;;;4.43;3.97;;;;;;;;;;6224535;27;20053;-64
2023/11/18 13:57:49;;;;;;;5.15;4.65;;;;;;;;;;6233497;27;20047;-64
2023/11/18 14:00:52;;;;;;;5.22;4.57;;;;;;;;;;6247176;27;20194;-64
2023/11/18 14:03:54;;;;;;;8.48;7.15;;;;;;;;;;6257435;27;20053;-64
2023/11/18 14:07:03;;;;;;;6.45;4.28;;;;;;;;;;6256259;27;20056;-64
2023/11/18 14:10:08;;;;;;;5.95;5.28;;;;;;;;;;6265548;27;20100;-64
2023/11/18 14:13:15;;;;;;;4.63;4.00;;;;;;;;;;6244824;27;20049;-65
2023/11/18 14:16:20;;;;;;;5.60;4.57;;;;;;;;;;6240216;27;20656;-64
2023/11/18 14:19:22;;;;;;;7.35;4.65;;;;;;;;;;6233043;27;20492;-63
2023/11/18 14:22:24;;;;;;;7.25;5.63;;;;;;;;;;6222602;27;20096;-64
2023/11/18 14:25:27;;;;;;;8.18;6.40;;;;;;;;;;6248073;27;20580;-64
2023/11/18 14:28:29;;;;;;;5.70;4.53;;;;;;;;;;6252670;27;20042;-64
2023/11/18 14:31:31;;;;;;;5.97;4.65;;;;;;;;;;6235795;27;20532;-64
2023/11/18 14:34:33;;;;;;;6.00;5.40;;;;;;;;;;6253494;27;20636;-64
2023/11/18 14:37:41;;;;;;;9.05;6.15;;;;;;;;;;6272431;27;20436;-64
2023/11/18 14:40:45;;;;;;;6.63;5.72;;;;;;;;;;6245228;27;20054;-64
2023/11/18 14:43:47;;;;;;;10.60;7.10;;;;;;;;;;6246565;27;20136;-64
2023/11/18 14:46:49;;;;;;;7.07;6.38;;;;;;;;;;6246493;27;20061;-63
2023/11/18 14:49:51;;;;;;;7.72;6.22;;;;;;;;;;6215166;28;20085;-64
2023/11/18 14:52:59;;;;;;;7.10;6.03;;;;;;;;;;6252333;27;20053;-64
2023/11/18 14:56:02;;;;;;;8.10;7.32;;;;;;;;;;6242772;27;20090;-63
2023/11/18 14:59:05;;;;;;;8.00;6.28;;;;;;;;;;6231203;27;20045;-64
2023/11/18 15:02:08;;;;;;;6.78;6.07;;;;;;;;;;6226642;28;20052;-63
2023/11/18 15:05:10;;;;;;;6.47;5.88;;;;;;;;;;6227614;28;20044;-64
2023/11/18 15:08:12;;;;;;;7.47;6.03;;;;;;;;;;6238550;27;20190;-64
2023/11/18 15:11:21;;;;;;;7.45;5.68;;;;;;;;;;6238499;27;20083;-64
2023/11/18 15:14:24;;;;;;;5.95;4.70;;;;;;;;;;6233566;27;20052;-63
2023/11/18 15:17:28;;;;;;;6.22;5.10;;;;;;;;;;6244044;27;20477;-63
2023/11/18 15:20:47;;;;;;;8.20;5.95;;;;;;;;;;6236737;27;20118;-63
2023/11/18 15:23:50;;;;;;;6.55;4.57;;;;;;;;;;6229251;27;20071;-63
2023/11/18 15:26:52;;;;;;;6.53;4.68;;;;;;;;;;6242987;27;20058;-63
2023/11/18 15:29:54;;;;;;;6.57;5.18;;;;;;;;;;6231622;28;20102;-65
2023/11/18 15:32:56;;;;;;;6.15;5.00;;;;;;;;;;6233942;27;20456;-63
2023/11/18 15:35:58;;;;;;;6.40;5.10;;;;;;;;;;6229006;28;20568;-63
2023/11/18 15:39:03;;;;;;;7.72;6.60;;;;;;;;;;6242571;27;20905;-63
2023/11/18 15:42:05;;;;;;;6.68;5.85;;;;;;;;;;6244708;27;20525;-63
2023/11/18 15:45:08;;;;;;;6.32;5.70;;;;;;;;;;6237626;27;20746;-63
2023/11/18 15:48:10;;;;;;;5.32;4.25;;;;;;;;;;6237281;27;20090;-63
2023/11/18 15:51:15;;;;;;;5.57;4.35;;;;;;;;;;6227877;27;20103;-63
2023/11/18 15:54:18;;;;;;;6.32;5.72;;;;;;;;;;6220282;27;20053;-64
2023/11/18 15:57:23;;;;;;;7.10;5.40;;;;;;;;;;6237578;27;20050;-63
2023/11/18 16:00:26;;;;;;;5.78;4.82;;;;;;;;;;6237560;28;20042;-63
2023/11/18 16:03:28;;;;;;;4.05;3.08;;;;;;;;;;6232621;27;20117;-63
2023/11/18 16:06:31;;;;;;;6.90;4.22;;;;;;;;;;6253671;27;20073;-62
2023/11/18 16:09:33;;;;;;;6.63;5.25;;;;;;;;;;6228485;28;20057;-62
2023/11/18 16:12:35;;;;;;;5.82;4.80;;;;;;;;;;6255199;27;20050;-63
2023/11/18 16:15:37;;;;;;;6.03;4.35;;;;;;;;;;6230425;27;20045;-62
2023/11/18 16:18:39;;;;;;;5.20;3.70;;;;;;;;;;6229909;27;20532;-62
2023/11/18 16:21:41;;;;;;;5.80;5.20;;;;;;;;;;6227401;28;20064;-63
2023/11/18 16:24:43;;;;;;;4.63;4.10;;;;;;;;;;6227235;27;20070;-63
2023/11/18 16:27:45;;;;;;;5.88;3.25;;;;;;;;;;6215862;28;20085;-62
2023/11/18 16:30:50;;;;;;;5.25;4.68;;;;;;;;;;6226291;28;20229;-63
2023/11/18 16:33:52;;;;;;;5.63;5.07;;;;;;;;;;6259716;27;20057;-63
2023/11/18 16:36:56;;;;;;;4.63;3.88;;;;;;;;;;6225448;28;20058;-63
2023/11/18 16:39:58;;;;;;;4.53;3.95;;;;;;;;;;6223738;27;20046;-63
2023/11/18 16:43:01;;;;;;;4.43;3.63;;;;;;;;;;6220229;28;20050;-63
2023/11/18 16:46:05;;;;;;;4.55;3.60;;;;;;;;;;6221229;28;20049;-63
2023/11/18 16:49:07;;;;;;;5.57;4.80;;;;;;;;;;6245961;27;20072;-63
2023/11/18 16:52:09;;;;;;;4.10;3.58;;;;;;;;;;6226436;28;20125;-63
2023/11/18 16:55:11;;;;;;;6.07;4.18;;;;;;;;;;6264049;27;20151;-63
2023/11/18 16:58:13;;;;;;;4.80;3.60;;;;;;;;;;6224412;27;20049;-64
2023/11/18 17:01:16;;;;;;;4.93;4.45;;;;;;;;;;6225039;28;20685;-65
2023/11/18 17:04:18;;;;;;;8.00;5.30;;;;;;;;;;6217284;28;20045;-64
2023/11/18 17:07:22;;;;;;;4.85;4.25;;;;;;;;;;6227630;28;20064;-64
2023/11/18 17:10:24;;;;;;;5.50;4.53;;;;;;;;;;6234727;27;20057;-63
2023/11/18 17:13:26;;;;;;;23.00;12.55;;;;;;;;;;6237384;27;20502;-64
2023/11/18 17:16:28;;;;;;;5.82;3.88;;;;;;;;;;6233295;27;20049;-64
2023/11/18 17:19:30;;;;;;;4.75;3.80;;;;;;;;;;6218638;28;20048;-63
2023/11/18 17:22:33;;;;;;;5.43;3.80;;;;;;;;;;6226139;28;20428;-64
2023/11/18 17:25:35;;;;;;;5.85;4.25;;;;;;;;;;6228327;28;20035;-63
2023/11/18 17:28:37;;;;;;;4.05;3.50;;;;;;;;;;6260492;28;20056;-63
2023/11/18 17:31:41;;;;;;;5.22;3.60;;;;;;;;;;6236710;28;20752;-63
2023/11/18 17:34:43;;;;;;;4.60;3.83;;;;;;;;;;6218356;28;20534;-63
2023/11/18 17:37:46;;;;;;;5.53;4.13;;;;;;;;;;6227394;28;20117;-64
2023/11/18 17:40:48;;;;;;;4.80;3.75;;;;;;;;;;6243426;28;20041;-64
2023/11/18 17:43:50;;;;;;;5.65;3.35;;;;;;;;;;6231679;28;20050;-65
2023/11/18 17:46:52;;;;;;;4.32;3.92;;;;;;;;;;6243907;28;20047;-64
2023/11/18 17:49:54;;;;;;;3.42;2.72;;;;;;;;;;6300213;28;20465;-63
2023/11/18 17:52:57;;;;;;;4.50;3.50;;;;;;;;;;6278348;28;20051;-64
2023/11/18 17:55:59;;;;;;;6.68;5.60;;;;;;;;;;6242516;28;20455;-64
2023/11/18 17:59:01;;;;;;;4.70;2.53;;;;;;;;;;6222252;28;20057;-64
2023/11/18 18:02:03;;;;;;;5.68;3.45;;;;;;;;;;6236709;27;20827;-63
2023/11/18 18:05:08;;;;;;;4.63;4.22;;;;;;;;;;6223893;28;20041;-63
2023/11/18 18:08:11;;;;;;;4.18;3.17;;;;;;;;;;6230263;28;20061;-63
2023/11/18 18:11:13;;;;;;;5.70;4.93;;;;;;;;;;6224814;28;20805;-63
2023/11/18 18:14:16;;;;;;;3.65;3.20;;;;;;;;;;6252405;28;20043;-63
2023/11/18 18:17:18;;;;;;;5.60;4.20;;;;;;;;;;6266150;28;20123;-63
2023/11/18 18:20:20;;;;;;;4.78;3.90;;;;;;;;;;6246770;28;20606;-64
2023/11/18 18:23:22;;;;;;;5.90;5.30;;;;;;;;;;6231767;28;20056;-63
2023/11/18 18:26:25;;;;;;;6.28;4.28;;;;;;;;;;6279444;28;20120;-63
2023/11/18 18:29:27;;;;;;;5.43;4.97;;;;;;;;;;6239706;28;20049;-63
2023/11/18 18:32:29;;;;;;;5.60;4.97;;;;;;;;;;6303450;27;20055;-63
2023/11/18 18:35:31;;;;;;;5.95;4.50;;;;;;;;;;6245642;27;20599;-63
2023/11/18 18:38:33;;;;;;;5.60;3.50;;;;;;;;;;6254507;27;20551;-63